createdAt,value
2017-12-17T00:02:06.065Z,12.97
2017-12-17T00:04:39.975Z,16.93
2017-12-17T00:07:12.504Z,14.87
2017-12-17T00:09:45.036Z,15.27
2017-12-17T00:12:18.085Z,15.30
2017-12-17T00:14:51.233Z,12.40
2017-12-17T00:17:24.540Z,12.97
2017-12-17T00:19:57.874Z,12.77
2017-12-17T00:22:31.472Z,13.43
2017-12-17T00:25:04.882Z,13.30
2017-12-17T00:27:37.852Z,15.20
2017-12-17T00:30:10.447Z,19.33
2017-12-17T00:32:43.113Z,19.10
2017-12-17T00:35:15.645Z,17.80
2017-12-17T00:37:48.245Z,15.60
2017-12-17T00:40:21.003Z,14.40
2017-12-17T00:42:53.540Z,14.27
2017-12-17T00:45:26.979Z,13.87
2017-12-17T00:48:00.519Z,17.17
2017-12-17T00:50:33.116Z,16.07
2017-12-17T00:53:06.406Z,18.20
2017-12-17T00:55:39.077Z,18.97
2017-12-17T00:58:12.941Z,13.57
2017-12-17T01:00:46.253Z,21.37
2017-12-17T01:03:19.342Z,6.83
2017-12-17T01:05:51.838Z,18.70
2017-12-17T01:08:25.601Z,9.90
2017-12-17T01:10:58.212Z,22.90
2017-12-17T01:13:31.332Z,9.90
2017-12-17T01:16:05.367Z,14.50
2017-12-17T01:18:38.881Z,12.67
2017-12-17T01:21:11.798Z,16.10
2017-12-17T01:23:45.449Z,20.03
2017-12-17T01:26:18.442Z,16.33
2017-12-17T01:28:51.541Z,20.37
2017-12-17T01:31:24.065Z,15.27
2017-12-17T01:33:56.661Z,13.47
2017-12-17T01:36:30.795Z,26.53
2017-12-17T01:39:03.755Z,20.50
2017-12-17T01:41:37.143Z,15.10
2017-12-17T01:44:09.958Z,16.43
2017-12-17T01:46:43.361Z,20.80
2017-12-17T01:49:16.968Z,14.40
2017-12-17T01:51:49.922Z,15.07
2017-12-17T01:54:23.150Z,17.90
2017-12-17T01:56:56.825Z,16.30
2017-12-17T01:59:29.476Z,14.30
2017-12-17T02:02:01.976Z,15.27
2017-12-17T02:04:34.589Z,11.80
2017-12-17T02:07:07.941Z,16.27
2017-12-17T02:09:40.638Z,15.83
2017-12-17T02:12:14.001Z,12.60
2017-12-17T02:14:47.407Z,15.20
2017-12-17T02:17:20.074Z,19.33
2017-12-17T02:19:54.056Z,13.83
2017-12-17T02:22:26.501Z,12.60
2017-12-17T02:25:00.013Z,11.43
2017-12-17T02:27:32.867Z,12.83
2017-12-17T02:30:05.400Z,12.70
2017-12-17T02:32:38.632Z,14.27
2017-12-17T02:35:11.914Z,13.00
2017-12-17T02:37:44.585Z,13.47
2017-12-17T02:40:17.795Z,14.10
2017-12-17T02:42:50.348Z,12.70
2017-12-17T02:45:23.297Z,13.60
2017-12-17T02:47:56.650Z,12.10
2017-12-17T02:50:29.262Z,10.53
2017-12-17T02:53:01.720Z,14.23
2017-12-17T02:55:34.398Z,13.20
2017-12-17T02:58:07.970Z,10.37
2017-12-17T03:00:40.597Z,13.07
2017-12-17T03:03:13.108Z,13.20
2017-12-17T03:05:46.425Z,11.17
2017-12-17T03:08:19.046Z,19.07
2017-12-17T03:10:52.427Z,16.47
2017-12-17T03:13:25.963Z,15.07
2017-12-17T03:15:58.643Z,14.50
2017-12-17T03:18:31.285Z,13.57
2017-12-17T03:21:04.543Z,14.17
2017-12-17T03:23:37.292Z,12.80
2017-12-17T03:26:10.197Z,13.83
2017-12-17T03:28:43.680Z,14.20
2017-12-17T03:31:16.946Z,12.83
2017-12-17T03:33:50.875Z,11.63
2017-12-17T03:36:24.486Z,12.97
2017-12-17T03:38:57.549Z,10.53
2017-12-17T03:41:30.554Z,12.90
2017-12-17T03:44:03.878Z,14.13
2017-12-17T03:46:37.417Z,13.73
2017-12-17T03:49:09.941Z,15.43
2017-12-17T03:51:42.450Z,10.43
2017-12-17T03:54:15.826Z,9.47
2017-12-17T03:56:48.670Z,9.70
2017-12-17T03:59:21.284Z,11.00
2017-12-17T04:01:53.809Z,11.77
2017-12-17T04:04:26.541Z,14.83
2017-12-17T04:06:59.061Z,13.27
2017-12-17T04:09:31.592Z,17.00
2017-12-17T04:12:04.120Z,12.10
2017-12-17T04:14:36.698Z,9.23
2017-12-17T04:17:09.186Z,13.83
2017-12-17T04:19:41.751Z,10.20
2017-12-17T04:22:14.350Z,13.83
2017-12-17T04:24:47.796Z,16.27
2017-12-17T04:27:21.845Z,10.47
2017-12-17T04:29:55.297Z,10.90
2017-12-17T04:32:28.639Z,11.70
2017-12-17T04:35:01.933Z,11.30
2017-12-17T04:37:35.301Z,13.27
2017-12-17T04:40:08.583Z,11.20
2017-12-17T04:42:41.811Z,13.60
2017-12-17T04:45:14.368Z,15.17
2017-12-17T04:47:47.601Z,14.10
2017-12-17T04:50:20.506Z,12.97
2017-12-17T04:52:53.883Z,14.43
2017-12-17T04:55:27.294Z,15.40
2017-12-17T04:58:00.618Z,13.30
2017-12-17T05:00:34.513Z,12.00
2017-12-17T05:03:07.395Z,15.40
2017-12-17T05:05:40.669Z,15.40
2017-12-17T05:08:13.672Z,14.13
2017-12-17T05:10:46.309Z,14.03
2017-12-17T05:13:19.687Z,15.37
2017-12-17T05:15:52.345Z,11.50
2017-12-17T05:18:24.933Z,18.80
2017-12-17T05:20:58.332Z,10.97
2017-12-17T05:23:31.795Z,13.37
2017-12-17T05:26:05.161Z,15.53
2017-12-17T05:28:37.977Z,14.27
2017-12-17T05:31:10.429Z,12.33
2017-12-17T05:33:43.025Z,14.07
2017-12-17T05:36:16.434Z,14.53
2017-12-17T05:38:49.798Z,15.40
2017-12-17T05:41:23.078Z,13.63
2017-12-17T05:43:56.013Z,13.13
2017-12-17T05:46:30.077Z,18.00
2017-12-17T05:49:04.130Z,14.50
2017-12-17T05:51:36.831Z,13.60
2017-12-17T05:54:09.796Z,10.53
2017-12-17T05:56:43.814Z,16.63
2017-12-17T05:59:17.342Z,14.77
2017-12-17T06:01:50.554Z,14.57
2017-12-17T06:04:23.078Z,12.50
2017-12-17T06:06:56.058Z,21.33
2017-12-17T06:09:29.316Z,11.50
2017-12-17T06:12:02.555Z,14.53
2017-12-17T06:14:36.575Z,15.40
2017-12-17T06:17:09.444Z,14.63
2017-12-17T06:19:42.312Z,14.60
2017-12-17T06:22:15.858Z,21.10
2017-12-17T06:24:48.349Z,11.43
2017-12-17T06:27:21.728Z,9.63
2017-12-17T06:29:54.581Z,12.67
2017-12-17T06:32:27.646Z,14.47
2017-12-17T06:35:00.179Z,22.33
2017-12-17T06:37:32.690Z,11.73
2017-12-17T06:40:05.169Z,13.53
2017-12-17T06:42:38.453Z,10.53
2017-12-17T06:45:12.194Z,10.70
2017-12-17T06:47:44.799Z,11.87
2017-12-17T06:50:18.227Z,9.40
2017-12-17T06:52:51.677Z,10.37
2017-12-17T06:55:25.154Z,14.20
2017-12-17T06:57:58.183Z,13.90
2017-12-17T07:00:30.756Z,15.07
2017-12-17T07:03:03.511Z,14.00
2017-12-17T07:05:36.501Z,13.07
2017-12-17T07:08:09.500Z,11.47
2017-12-17T07:10:42.326Z,10.83
2017-12-17T07:13:15.560Z,14.07
2017-12-17T07:15:48.535Z,11.30
2017-12-17T07:18:21.762Z,13.17
2017-12-17T07:20:55.194Z,10.70
2017-12-17T07:23:28.094Z,10.30
2017-12-17T07:26:01.217Z,11.43
2017-12-17T07:28:34.388Z,10.83
2017-12-17T07:31:07.306Z,13.20
2017-12-17T07:33:39.885Z,8.97
2017-12-17T07:36:12.415Z,9.30
2017-12-17T07:38:45.199Z,12.17
2017-12-17T07:41:17.845Z,11.07
2017-12-17T07:43:51.213Z,9.87
2017-12-17T07:46:24.573Z,10.23
2017-12-17T07:48:57.969Z,8.70
2017-12-17T07:51:31.232Z,10.73
2017-12-17T07:54:04.080Z,14.33
2017-12-17T07:56:36.576Z,12.13
2017-12-17T07:59:10.093Z,10.17
2017-12-17T08:01:42.621Z,8.83
2017-12-17T08:04:15.311Z,13.53
2017-12-17T08:06:48.312Z,9.53
2017-12-17T08:09:21.771Z,9.27
2017-12-17T08:11:55.533Z,12.00
2017-12-17T08:14:28.280Z,7.17
2017-12-17T08:17:01.568Z,10.37
2017-12-17T08:19:36.469Z,11.90
2017-12-17T08:22:08.911Z,15.90
2017-12-17T08:24:42.236Z,9.37
2017-12-17T08:27:15.215Z,9.13
2017-12-17T08:29:48.397Z,8.97
2017-12-17T08:32:21.880Z,11.20
2017-12-17T08:34:55.260Z,11.50
2017-12-17T08:37:29.410Z,9.20
2017-12-17T08:40:02.181Z,13.60
2017-12-17T08:42:35.158Z,10.83
2017-12-17T08:45:07.652Z,15.50
2017-12-17T08:47:40.100Z,9.43
2017-12-17T08:50:12.646Z,12.63
2017-12-17T08:52:45.421Z,8.53
2017-12-17T08:55:18.338Z,12.10
2017-12-17T08:57:51.713Z,9.77
2017-12-17T09:00:24.384Z,12.07
2017-12-17T09:02:56.884Z,10.03
2017-12-17T09:05:30.226Z,8.97
2017-12-17T09:08:02.942Z,10.70
2017-12-17T09:10:35.433Z,7.70
2017-12-17T09:13:08.847Z,8.47
2017-12-17T09:15:41.475Z,8.40
2017-12-17T09:18:14.254Z,7.50
2017-12-17T09:20:47.287Z,10.03
2017-12-17T09:23:21.513Z,8.40
2017-12-17T09:25:54.142Z,5.00
2017-12-17T09:28:27.962Z,5.43
2017-12-17T09:31:00.574Z,8.67
2017-12-17T09:33:33.969Z,5.00
2017-12-17T09:36:06.836Z,9.30
2017-12-17T09:38:39.440Z,6.23
2017-12-17T09:41:11.906Z,5.47
2017-12-17T09:43:45.108Z,7.37
2017-12-17T09:46:18.318Z,5.60
2017-12-17T09:48:50.735Z,6.87
2017-12-17T09:51:24.016Z,9.83
2017-12-17T09:53:57.011Z,7.73
2017-12-17T09:56:29.866Z,6.10
2017-12-17T09:59:03.216Z,6.77
2017-12-17T10:01:36.020Z,6.40
2017-12-17T10:04:08.499Z,7.57
2017-12-17T10:06:41.949Z,7.20
2017-12-17T10:09:14.515Z,6.10
2017-12-17T10:11:47.090Z,7.60
2017-12-17T10:14:19.699Z,7.00
2017-12-17T10:16:53.017Z,9.47
2017-12-17T10:19:25.636Z,6.87
2017-12-17T10:21:58.287Z,7.97
2017-12-17T10:24:31.566Z,6.30
2017-12-17T10:27:05.274Z,5.13
2017-12-17T10:29:38.189Z,6.37
2017-12-17T10:32:11.547Z,6.17
2017-12-17T10:34:44.789Z,5.60
2017-12-17T10:37:17.445Z,5.47
2017-12-17T10:39:50.601Z,6.67
2017-12-17T10:42:24.271Z,6.20
2017-12-17T10:44:56.761Z,7.27
2017-12-17T10:47:30.183Z,8.03
2017-12-17T10:50:02.857Z,8.33
2017-12-17T10:52:36.066Z,7.23
2017-12-17T10:55:09.960Z,7.30
2017-12-17T10:57:43.486Z,6.63
2017-12-17T11:00:16.624Z,8.40
2017-12-17T11:02:49.202Z,7.57
2017-12-17T11:05:22.136Z,7.97
2017-12-17T11:07:55.071Z,6.57
2017-12-17T11:10:28.425Z,7.93
2017-12-17T11:13:02.640Z,7.33
2017-12-17T11:15:36.202Z,8.80
2017-12-17T11:18:09.312Z,13.73
2017-12-17T11:20:43.491Z,7.73
2017-12-17T11:23:16.204Z,7.10
2017-12-17T11:25:48.711Z,7.53
2017-12-17T11:28:21.235Z,7.00
2017-12-17T11:30:54.433Z,6.80
2017-12-17T11:33:27.391Z,7.00
2017-12-17T11:35:59.939Z,7.63
2017-12-17T11:38:32.652Z,6.93
2017-12-17T11:41:05.500Z,6.90
2017-12-17T11:43:38.494Z,6.83
2017-12-17T11:46:11.271Z,6.27
2017-12-17T11:48:45.619Z,6.53
2017-12-17T11:51:18.977Z,6.87
2017-12-17T11:53:52.343Z,6.70
2017-12-17T11:56:26.181Z,6.30
2017-12-17T11:58:58.653Z,5.47
2017-12-17T12:01:31.840Z,6.73
2017-12-17T12:04:05.020Z,6.97
2017-12-17T12:06:38.553Z,6.60
2017-12-17T12:09:11.653Z,6.10
2017-12-17T12:11:44.960Z,7.20
2017-12-17T12:14:18.384Z,6.30
2017-12-17T12:16:51.197Z,4.93
2017-12-17T12:19:23.775Z,8.53
2017-12-17T12:21:56.287Z,6.33
2017-12-17T12:24:28.957Z,4.80
2017-12-17T12:27:02.363Z,4.53
2017-12-17T12:29:34.956Z,3.80
2017-12-17T12:32:08.228Z,4.57
2017-12-17T12:34:41.401Z,6.67
2017-12-17T12:37:14.003Z,3.73
2017-12-17T12:39:48.197Z,5.57
2017-12-17T12:42:20.840Z,4.87
2017-12-17T12:44:54.608Z,4.57
2017-12-17T12:47:27.996Z,4.37
2017-12-17T12:50:00.699Z,5.17
2017-12-17T12:52:33.353Z,4.23
2017-12-17T12:55:06.028Z,4.80
2017-12-17T12:57:39.019Z,4.00
2017-12-17T13:00:12.143Z,4.30
2017-12-17T13:02:45.244Z,5.97
2017-12-17T13:05:18.693Z,6.27
2017-12-17T13:07:51.745Z,7.07
2017-12-17T13:10:24.544Z,3.83
2017-12-17T13:12:57.917Z,8.53
2017-12-17T13:15:30.621Z,6.10
2017-12-17T13:18:03.968Z,5.50
2017-12-17T13:20:37.457Z,4.50
2017-12-17T13:23:10.454Z,6.80
2017-12-17T13:25:43.721Z,5.50
2017-12-17T13:28:16.804Z,5.37
2017-12-17T13:30:49.508Z,6.37
2017-12-17T13:33:22.024Z,5.10
2017-12-17T13:35:54.749Z,5.33
2017-12-17T13:38:28.197Z,6.80
2017-12-17T13:41:01.727Z,11.10
2017-12-17T13:43:34.845Z,7.90
2017-12-17T13:46:07.747Z,7.30
2017-12-17T13:48:40.965Z,5.53
2017-12-17T13:51:13.542Z,5.37
2017-12-17T13:53:47.130Z,4.67
2017-12-17T13:56:21.029Z,5.20
2017-12-17T13:58:53.682Z,7.43
2017-12-17T14:01:26.255Z,5.07
2017-12-17T14:03:58.869Z,5.83
2017-12-17T14:06:33.151Z,9.30
2017-12-17T14:09:06.317Z,5.00
2017-12-17T14:11:39.720Z,4.83
2017-12-17T14:14:12.835Z,9.97
2017-12-17T14:16:45.750Z,6.97
2017-12-17T14:19:19.082Z,7.87
2017-12-17T14:21:51.771Z,8.73
2017-12-17T14:24:25.803Z,5.63
2017-12-17T14:26:59.091Z,8.33
2017-12-17T14:29:32.418Z,5.77
2017-12-17T14:32:05.714Z,5.07
2017-12-17T14:34:38.762Z,5.50
2017-12-17T14:37:12.036Z,7.70
2017-12-17T14:39:45.280Z,4.30
2017-12-17T14:42:17.906Z,5.43
2017-12-17T14:44:50.550Z,4.90
2017-12-17T14:47:24.190Z,6.70
2017-12-17T14:49:56.755Z,7.20
2017-12-17T14:52:30.299Z,6.33
2017-12-17T14:55:03.894Z,8.07
2017-12-17T14:57:36.679Z,6.07
2017-12-17T15:00:09.491Z,4.90
2017-12-17T15:02:43.201Z,4.93
2017-12-17T15:05:16.527Z,7.97
2017-12-17T15:07:49.102Z,8.23
2017-12-17T15:10:21.679Z,12.57
2017-12-17T15:12:54.464Z,4.43
2017-12-17T15:15:27.768Z,5.50
2017-12-17T15:18:01.065Z,5.20
2017-12-17T15:20:35.155Z,6.40
2017-12-17T15:23:08.062Z,7.83
2017-12-17T15:25:40.763Z,7.30
2017-12-17T15:28:14.158Z,7.00
2017-12-17T15:30:47.444Z,5.93
2017-12-17T15:33:20.970Z,5.50
2017-12-17T15:35:53.721Z,5.63
2017-12-17T15:38:27.124Z,5.83
2017-12-17T15:41:00.554Z,4.30
2017-12-17T15:43:33.658Z,6.50
2017-12-17T15:46:06.746Z,5.30
2017-12-17T15:48:40.384Z,5.80
2017-12-17T15:51:14.693Z,7.57
2017-12-17T15:53:48.293Z,5.77
2017-12-17T15:56:22.505Z,5.80
2017-12-17T15:58:57.142Z,7.70
2017-12-17T16:01:30.267Z,6.43
2017-12-17T16:04:04.270Z,5.40
2017-12-17T16:06:37.523Z,7.10
2017-12-17T16:09:11.853Z,4.67
2017-12-17T16:11:44.743Z,5.60
2017-12-17T16:14:19.559Z,5.93
2017-12-17T16:16:54.997Z,5.63
2017-12-17T16:19:28.840Z,5.40
2017-12-17T16:22:01.986Z,4.10
2017-12-17T16:24:35.254Z,10.63
2017-12-17T16:27:07.939Z,4.80
2017-12-17T16:29:41.964Z,4.47
2017-12-17T16:32:15.773Z,4.93
2017-12-17T16:34:48.634Z,4.87
2017-12-17T16:37:22.123Z,4.93
2017-12-17T16:39:55.185Z,4.50
2017-12-17T16:42:28.726Z,4.87
2017-12-17T16:45:02.021Z,5.97
2017-12-17T16:47:35.305Z,9.17
2017-12-17T16:50:09.216Z,5.30
2017-12-17T16:52:42.611Z,5.77
2017-12-17T16:55:16.622Z,5.93
2017-12-17T16:57:51.560Z,9.37
2017-12-17T17:00:25.165Z,6.63
2017-12-17T17:02:58.728Z,6.80
2017-12-17T17:05:32.762Z,10.43
2017-12-17T17:08:05.648Z,6.30
2017-12-17T17:10:40.472Z,6.63
2017-12-17T17:13:13.747Z,7.27
2017-12-17T17:15:47.206Z,7.77
2017-12-17T17:18:20.750Z,9.07
2017-12-17T17:20:53.946Z,6.73
2017-12-17T17:23:27.750Z,5.67
2017-12-17T17:26:00.666Z,8.40
2017-12-17T17:28:34.236Z,8.27
2017-12-17T17:31:06.843Z,6.37
2017-12-17T17:33:39.632Z,7.53
2017-12-17T17:36:12.675Z,6.10
2017-12-17T17:38:46.684Z,11.47
2017-12-17T17:41:19.630Z,7.77
2017-12-17T17:43:53.682Z,8.63
2017-12-17T17:46:27.481Z,7.13
2017-12-17T17:49:00.877Z,7.47
2017-12-17T17:51:35.909Z,6.10
2017-12-17T17:54:09.918Z,6.53
2017-12-17T17:56:44.541Z,6.43
2017-12-17T17:59:18.447Z,9.13
2017-12-17T18:01:52.458Z,6.20
2017-12-17T18:04:26.261Z,4.00
2017-12-17T18:07:01.173Z,6.60
2017-12-17T18:09:34.688Z,4.73
2017-12-17T18:12:08.083Z,5.47
2017-12-17T18:14:43.359Z,7.50
2017-12-17T18:17:18.113Z,6.60
2017-12-17T18:19:54.076Z,6.03
2017-12-17T18:22:29.595Z,6.67
2017-12-17T18:25:05.558Z,6.70
2017-12-17T18:27:41.127Z,7.30
2017-12-17T18:30:16.396Z,5.90
2017-12-17T18:32:51.954Z,6.67
2017-12-17T18:35:27.981Z,5.70
2017-12-17T18:38:03.435Z,6.40
2017-12-17T18:40:39.797Z,3.87
2017-12-17T18:43:15.746Z,8.00
2017-12-17T18:45:51.023Z,7.20
2017-12-17T18:48:26.683Z,11.67
2017-12-17T18:51:03.392Z,4.03
2017-12-17T18:53:39.268Z,6.77
2017-12-17T18:56:20.695Z,5.43
2017-12-17T18:58:57.319Z,4.50
2017-12-17T19:01:32.535Z,7.13
2017-12-17T19:04:08.718Z,5.40
2017-12-17T19:06:44.703Z,3.70
2017-12-17T19:09:20.458Z,4.67
2017-12-17T19:11:55.612Z,5.30
2017-12-17T19:14:31.659Z,9.00
2017-12-17T19:17:07.764Z,7.70
2017-12-17T19:19:44.189Z,5.83
2017-12-17T19:22:20.407Z,9.60
2017-12-17T19:24:56.146Z,5.47
2017-12-17T19:27:32.680Z,9.13
2017-12-17T19:30:09.187Z,6.43
2017-12-17T19:32:45.384Z,6.00
2017-12-17T19:35:20.741Z,8.50
2017-12-17T19:37:58.176Z,10.23
2017-12-17T19:40:34.029Z,4.97
2017-12-17T19:43:10.190Z,7.20
2017-12-17T19:45:46.060Z,6.23
2017-12-17T19:48:23.103Z,5.30
2017-12-17T19:50:59.412Z,5.50
2017-12-17T19:53:35.068Z,5.77
2017-12-17T19:56:11.096Z,4.77
2017-12-17T19:58:46.644Z,6.33
2017-12-17T20:01:22.100Z,4.07
2017-12-17T20:03:58.130Z,6.53
2017-12-17T20:06:34.027Z,7.23
2017-12-17T20:09:09.341Z,8.43
2017-12-17T20:11:44.812Z,5.47
2017-12-17T20:14:19.939Z,7.43
2017-12-17T20:16:56.232Z,5.60
2017-12-17T20:19:32.224Z,7.63
2017-12-17T20:22:08.025Z,8.20
2017-12-17T20:24:44.986Z,9.07
2017-12-17T20:27:20.121Z,7.03
2017-12-17T20:29:56.508Z,4.17
2017-12-17T20:32:32.315Z,7.90
2017-12-17T20:35:08.760Z,6.60
2017-12-17T20:37:44.288Z,7.10
2017-12-17T20:40:20.075Z,8.93
2017-12-17T20:42:55.861Z,6.40
2017-12-17T20:45:31.554Z,7.30
2017-12-17T20:48:07.316Z,6.53
2017-12-17T20:50:44.237Z,8.37
2017-12-17T20:53:20.342Z,7.63
2017-12-17T20:55:56.100Z,7.73
2017-12-17T20:58:31.900Z,6.67
2017-12-17T21:01:07.949Z,7.00
2017-12-17T21:03:43.368Z,7.67
2017-12-17T21:06:18.692Z,8.73
2017-12-17T21:08:55.012Z,6.93
2017-12-17T21:11:30.590Z,7.60
2017-12-17T21:14:06.341Z,11.63
2017-12-17T21:16:42.965Z,10.97
2017-12-17T21:19:18.927Z,7.43
2017-12-17T21:21:54.662Z,6.93
2017-12-17T21:24:30.249Z,6.73
2017-12-17T21:27:05.587Z,7.37
2017-12-17T21:29:41.452Z,9.60
2017-12-17T21:32:17.452Z,6.50
2017-12-17T21:34:53.925Z,8.47
2017-12-17T21:37:30.570Z,9.43
2017-12-17T21:40:05.879Z,8.37
2017-12-17T21:42:41.578Z,5.93
2017-12-17T21:45:17.089Z,9.03
2017-12-17T21:47:53.700Z,7.13
2017-12-17T21:50:29.062Z,6.43
2017-12-17T21:53:05.243Z,8.23
2017-12-17T21:55:40.794Z,10.93
2017-12-17T21:58:16.042Z,4.47
2017-12-17T22:00:51.795Z,4.90
2017-12-17T22:03:28.145Z,5.40
2017-12-17T22:06:03.369Z,7.20
2017-12-17T22:08:38.640Z,7.30
2017-12-17T22:11:14.230Z,5.13
2017-12-17T22:13:49.926Z,7.00
2017-12-17T22:16:23.711Z,8.37
2017-12-17T22:18:56.918Z,5.30
2017-12-17T22:21:30.043Z,3.60
2017-12-17T22:24:02.613Z,4.97
2017-12-17T22:26:35.753Z,6.03
2017-12-17T22:29:08.889Z,4.90
2017-12-17T22:31:42.060Z,5.70
2017-12-17T22:34:15.074Z,8.40
2017-12-17T22:36:47.844Z,4.80
2017-12-17T22:39:21.812Z,7.60
2017-12-17T22:41:55.219Z,4.60
2017-12-17T22:44:27.880Z,10.57
2017-12-17T22:47:01.613Z,4.70
2017-12-17T22:49:34.107Z,3.97
2017-12-17T22:52:07.504Z,4.83
2017-12-17T22:54:40.804Z,7.00
2017-12-17T22:57:13.805Z,5.60
2017-12-17T22:59:46.932Z,3.83
2017-12-17T23:02:19.640Z,4.10
2017-12-17T23:04:52.276Z,7.70
2017-12-17T23:07:24.759Z,5.00
2017-12-17T23:09:57.570Z,4.03
2017-12-17T23:12:30.209Z,4.70
2017-12-17T23:15:02.653Z,3.47
2017-12-17T23:17:35.343Z,4.63
2017-12-17T23:20:07.953Z,3.47
2017-12-17T23:22:40.470Z,5.33
2017-12-17T23:25:14.649Z,5.10
2017-12-17T23:27:47.493Z,4.73
2017-12-17T23:30:20.955Z,4.20
2017-12-17T23:32:53.565Z,5.50
2017-12-17T23:35:26.048Z,7.50
2017-12-17T23:37:59.345Z,3.37
2017-12-17T23:40:32.587Z,5.93
2017-12-17T23:43:05.142Z,5.53
2017-12-17T23:45:38.188Z,3.70
2017-12-17T23:48:11.730Z,4.50
2017-12-17T23:50:45.071Z,4.33
2017-12-17T23:53:18.152Z,11.80
2017-12-17T23:55:51.095Z,3.90
2017-12-17T23:58:24.189Z,3.60
